createdAt,value
2018-03-08T00:00:40.987Z,50.13
2018-03-08T00:03:09.194Z,52.77
2018-03-08T00:05:37.860Z,53.57
2018-03-08T00:08:05.957Z,52.10
2018-03-08T00:10:34.908Z,52.40
2018-03-08T00:13:03.780Z,53.33
2018-03-08T00:15:31.926Z,51.13
2018-03-08T00:18:00.062Z,53.90
2018-03-08T00:20:29.068Z,52.53
2018-03-08T00:22:57.239Z,54.07
2018-03-08T00:25:25.348Z,52.23
2018-03-08T00:27:53.562Z,51.07
2018-03-08T00:30:21.678Z,51.17
2018-03-08T00:32:49.903Z,48.77
2018-03-08T00:35:18.082Z,48.97
2018-03-08T00:37:46.270Z,51.27
2018-03-08T00:40:14.380Z,48.87
2018-03-08T00:42:42.555Z,50.37
2018-03-08T00:45:11.547Z,51.00
2018-03-08T00:47:39.670Z,48.80
2018-03-08T00:50:07.871Z,51.80
2018-03-08T00:52:36.028Z,49.80
2018-03-08T00:55:04.134Z,47.30
2018-03-08T00:57:32.261Z,45.67
2018-03-08T01:00:01.152Z,48.43
2018-03-08T01:02:30.009Z,45.13
2018-03-08T01:04:58.204Z,48.97
2018-03-08T01:07:26.362Z,48.90
2018-03-08T01:09:54.527Z,45.40
2018-03-08T01:12:22.707Z,45.60
2018-03-08T01:14:50.809Z,47.07
2018-03-08T01:17:18.935Z,50.40
2018-03-08T01:19:47.132Z,47.67
2018-03-08T01:22:27.463Z,48.47
2018-03-08T01:24:55.628Z,47.33
2018-03-08T01:27:24.500Z,46.40
2018-03-08T01:29:52.614Z,47.17
2018-03-08T01:32:20.758Z,49.13
2018-03-08T01:34:48.886Z,51.40
2018-03-08T01:37:17.015Z,50.30
2018-03-08T01:39:45.199Z,50.20
2018-03-08T01:42:13.630Z,53.80
2018-03-08T01:44:42.515Z,54.20
2018-03-08T01:47:27.842Z,53.80
2018-03-08T01:49:56.001Z,53.00
2018-03-08T01:52:24.095Z,51.67
2018-03-08T01:54:52.995Z,51.93
2018-03-08T01:57:21.877Z,50.10
2018-03-08T01:59:50.047Z,50.40
2018-03-08T02:02:18.153Z,48.03
2018-03-08T02:04:47.085Z,51.57
2018-03-08T02:07:15.215Z,48.00
2018-03-08T02:10:08.491Z,48.63
2018-03-08T02:12:36.624Z,49.23
2018-03-08T02:15:04.768Z,47.07
2018-03-08T02:17:34.180Z,46.23
2018-03-08T02:20:02.327Z,46.70
2018-03-08T02:22:30.516Z,45.00
2018-03-08T02:24:58.622Z,44.90
2018-03-08T02:27:26.735Z,46.87
2018-03-08T02:29:54.819Z,48.07
2018-03-08T02:32:22.941Z,48.17
2018-03-08T02:34:51.031Z,51.17
2018-03-08T02:37:29.318Z,50.20
2018-03-08T02:39:57.569Z,50.23
2018-03-08T02:42:26.403Z,51.30
2018-03-08T02:44:54.527Z,47.93
2018-03-08T02:47:22.648Z,51.20
2018-03-08T02:49:55.847Z,49.70
2018-03-08T02:52:23.965Z,50.53
2018-03-08T02:54:52.118Z,53.23
2018-03-08T02:57:20.269Z,52.63
2018-03-08T02:59:49.233Z,53.50
2018-03-08T03:02:17.331Z,52.70
2018-03-08T03:04:48.102Z,53.53
2018-03-08T03:07:16.223Z,50.87
2018-03-08T03:09:44.332Z,54.30
2018-03-08T03:12:12.424Z,52.53
2018-03-08T03:14:41.520Z,55.87
2018-03-08T03:17:09.739Z,54.47
2018-03-08T03:19:37.910Z,55.40
2018-03-08T03:22:06.846Z,55.00
2018-03-08T03:24:35.023Z,55.27
2018-03-08T03:27:14.679Z,55.97
2018-03-08T03:29:42.770Z,54.30
2018-03-08T03:32:10.936Z,55.50
2018-03-08T03:34:39.071Z,53.70
2018-03-08T03:37:07.173Z,54.17
2018-03-08T03:39:35.302Z,55.00
2018-03-08T03:42:03.409Z,50.30
2018-03-08T03:44:31.502Z,51.67
2018-03-08T03:46:59.801Z,51.83
2018-03-08T03:49:27.928Z,53.10
2018-03-08T03:51:56.783Z,55.70
2018-03-08T03:54:24.892Z,52.70
2018-03-08T03:57:10.396Z,52.83
2018-03-08T03:59:53.112Z,53.40
2018-03-08T04:02:21.275Z,55.73
2018-03-08T04:04:49.448Z,51.07
2018-03-08T04:07:17.579Z,53.90
2018-03-08T04:09:46.487Z,53.40
2018-03-08T04:12:15.415Z,52.37
2018-03-08T04:14:43.548Z,53.00
2018-03-08T04:17:11.650Z,52.70
2018-03-08T04:19:40.619Z,49.33
2018-03-08T04:22:08.720Z,51.40
2018-03-08T04:24:36.856Z,49.00
2018-03-08T04:27:05.019Z,50.40
2018-03-08T04:29:33.143Z,49.37
2018-03-08T04:32:01.305Z,47.70
2018-03-08T04:34:29.408Z,46.10
2018-03-08T04:36:57.599Z,50.37
2018-03-08T04:39:33.669Z,53.60
2018-03-08T04:42:01.827Z,55.50
2018-03-08T04:44:29.939Z,57.20
2018-03-08T04:46:58.074Z,57.40
2018-03-08T04:49:26.227Z,56.37
2018-03-08T04:54:49.140Z,57.40
2018-03-08T04:57:17.337Z,57.93
2018-03-08T04:59:46.010Z,60.63
2018-03-08T05:02:15.019Z,59.13
2018-03-08T05:04:46.172Z,58.80
2018-03-08T05:07:14.294Z,60.73
2018-03-08T05:09:43.169Z,59.33
2018-03-08T05:12:11.517Z,60.40
2018-03-08T05:14:42.933Z,62.93
2018-03-08T05:17:11.041Z,59.83
2018-03-08T05:19:40.884Z,60.27
2018-03-08T05:22:09.681Z,58.40
2018-03-08T05:24:37.741Z,56.00
2018-03-08T05:27:06.621Z,59.20
2018-03-08T05:29:38.887Z,58.77
2018-03-08T05:32:07.016Z,56.77
2018-03-08T05:34:36.960Z,57.37
2018-03-08T05:37:05.069Z,60.33
2018-03-08T05:39:33.159Z,59.20
2018-03-08T05:45:04.491Z,54.27
2018-03-08T05:47:32.654Z,52.63
2018-03-08T05:50:00.768Z,56.53
2018-03-08T05:52:30.551Z,53.33
2018-03-08T05:54:58.676Z,54.43
2018-03-08T05:57:26.828Z,53.13
2018-03-08T05:59:54.920Z,51.93
2018-03-08T06:02:23.275Z,53.00
2018-03-08T06:04:55.689Z,55.93
2018-03-08T06:07:23.880Z,55.90
2018-03-08T06:09:52.128Z,51.20
2018-03-08T06:12:20.304Z,52.37
2018-03-08T06:14:48.506Z,51.47
2018-03-08T06:17:16.649Z,51.93
2018-03-08T06:19:45.544Z,54.80
2018-03-08T06:22:13.666Z,54.87
2018-03-08T06:24:41.786Z,51.70
2018-03-08T06:27:10.203Z,54.10
2018-03-08T06:29:42.703Z,56.90
2018-03-08T06:32:11.559Z,53.07
2018-03-08T06:34:39.655Z,52.90
2018-03-08T06:37:07.840Z,53.63
2018-03-08T06:39:35.959Z,55.10
2018-03-08T06:42:04.065Z,55.90
2018-03-08T06:44:32.170Z,52.50
2018-03-08T06:47:01.276Z,54.17
2018-03-08T06:49:29.473Z,55.70
2018-03-08T06:51:57.586Z,53.40
2018-03-08T06:54:25.692Z,55.20
2018-03-08T06:56:54.572Z,52.40
2018-03-08T06:59:22.680Z,52.40
2018-03-08T07:01:56.198Z,53.47
2018-03-08T07:04:25.716Z,46.50
2018-03-08T07:06:53.794Z,51.10
2018-03-08T07:09:22.696Z,46.27
2018-03-08T07:11:50.813Z,43.13
2018-03-08T07:14:22.428Z,44.20
2018-03-08T07:16:50.523Z,43.23
2018-03-08T07:19:20.536Z,41.57
2018-03-08T07:21:48.626Z,42.53
2018-03-08T07:24:16.766Z,38.90
2018-03-08T07:26:44.872Z,33.97
2018-03-08T07:29:13.016Z,28.40
2018-03-08T07:31:50.420Z,27.60
2018-03-08T07:34:18.513Z,27.47
2018-03-08T07:36:46.625Z,26.10
2018-03-08T07:39:14.816Z,24.47
2018-03-08T07:41:42.956Z,28.00
2018-03-08T07:44:12.657Z,23.50
2018-03-08T07:46:41.949Z,24.13
2018-03-08T07:49:10.160Z,20.97
2018-03-08T07:51:39.046Z,22.57
2018-03-08T07:54:07.269Z,22.33
2018-03-08T07:56:35.517Z,21.97
2018-03-08T07:59:05.496Z,24.00
2018-03-08T08:01:33.736Z,19.57
2018-03-08T08:04:04.989Z,23.37
2018-03-08T08:06:45.511Z,18.20
2018-03-08T08:09:14.094Z,21.63
2018-03-08T08:11:42.292Z,20.67
2018-03-08T08:14:11.793Z,22.17
2018-03-08T08:16:39.985Z,19.07
2018-03-08T08:19:08.090Z,22.80
2018-03-08T08:21:36.171Z,22.10
2018-03-08T08:24:04.293Z,20.00
2018-03-08T08:26:32.416Z,20.80
2018-03-08T08:29:00.824Z,18.23
2018-03-08T08:31:29.016Z,21.00
2018-03-08T08:33:57.200Z,17.73
2018-03-08T08:36:26.040Z,16.87
2018-03-08T08:38:57.125Z,18.90
2018-03-08T08:41:25.538Z,18.50
2018-03-08T08:43:53.699Z,18.47
2018-03-08T08:46:21.902Z,17.83
2018-03-08T08:48:50.087Z,17.13
2018-03-08T08:51:18.223Z,16.60
2018-03-08T08:53:46.746Z,18.20
2018-03-08T08:56:15.834Z,17.87
2018-03-08T08:58:44.041Z,18.83
2018-03-08T09:01:12.772Z,19.10
2018-03-08T09:03:40.961Z,19.30
2018-03-08T09:06:09.741Z,18.23
2018-03-08T09:08:37.940Z,18.33
2018-03-08T09:11:06.610Z,18.27
2018-03-08T09:13:34.855Z,17.63
2018-03-08T09:16:02.959Z,19.53
2018-03-08T09:18:31.139Z,24.02
2018-03-08T09:20:59.814Z,20.60
2018-03-08T09:26:07.237Z,18.10
2018-03-08T09:28:43.352Z,19.40
2018-03-08T09:31:25.658Z,19.40
2018-03-08T09:33:53.957Z,13.87
2018-03-08T09:36:22.196Z,18.70
2018-03-08T09:38:50.553Z,20.73
2018-03-08T09:41:18.705Z,20.97
2018-03-08T09:43:46.890Z,20.33
2018-03-08T09:46:15.023Z,21.63
2018-03-08T09:48:43.497Z,20.83
2018-03-08T09:51:11.702Z,23.23
2018-03-08T09:53:39.916Z,21.30
2018-03-08T09:56:08.306Z,22.77
2018-03-08T09:58:36.449Z,22.60
2018-03-08T10:01:06.580Z,22.40
2018-03-08T10:03:34.947Z,23.07
2018-03-08T10:06:05.023Z,22.90
2018-03-08T10:08:34.219Z,24.80
2018-03-08T10:11:05.341Z,22.67
2018-03-08T10:13:34.559Z,24.37
2018-03-08T10:16:03.244Z,23.17
2018-03-08T10:18:31.434Z,24.60
2018-03-08T10:20:59.582Z,22.40
2018-03-08T10:23:27.736Z,23.17
2018-03-08T10:25:56.761Z,24.20
2018-03-08T10:28:24.869Z,22.90
2018-03-08T10:30:53.225Z,20.87
2018-03-08T10:33:22.570Z,16.60
2018-03-08T10:35:50.699Z,20.10
2018-03-08T10:38:18.831Z,20.40
2018-03-08T10:40:46.962Z,20.27
2018-03-08T10:43:16.016Z,20.37
2018-03-08T10:45:44.218Z,20.13
2018-03-08T10:48:12.539Z,18.47
2018-03-08T10:50:41.084Z,19.33
2018-03-08T10:53:09.594Z,19.70
2018-03-08T10:55:39.862Z,19.40
2018-03-08T10:58:08.881Z,15.70
2018-03-08T11:00:43.547Z,19.93
2018-03-08T11:03:12.590Z,20.60
2018-03-08T11:05:46.773Z,19.90
2018-03-08T11:08:14.939Z,19.40
2018-03-08T11:10:44.068Z,20.27
2018-03-08T11:13:12.390Z,18.23
2018-03-08T11:15:40.741Z,19.67
2018-03-08T11:18:10.975Z,18.23
2018-03-08T11:20:39.112Z,19.60
2018-03-08T11:23:07.394Z,21.90
2018-03-08T11:25:35.656Z,19.23
2018-03-08T11:28:04.979Z,20.13
2018-03-08T11:30:33.107Z,20.30
2018-03-08T11:33:01.368Z,21.30
2018-03-08T11:35:29.993Z,20.57
2018-03-08T11:37:58.712Z,19.67
2018-03-08T11:40:26.836Z,18.67
2018-03-08T11:42:55.354Z,18.57
2018-03-08T11:45:24.920Z,20.33
2018-03-08T11:47:54.206Z,18.97
2018-03-08T11:50:24.171Z,19.53
2018-03-08T11:52:53.472Z,18.97
2018-03-08T11:55:21.675Z,19.93
2018-03-08T11:57:49.873Z,18.73
2018-03-08T12:00:22.559Z,19.80
2018-03-08T12:02:51.658Z,17.40
2018-03-08T12:05:19.823Z,18.10
2018-03-08T12:07:48.757Z,17.27
2018-03-08T12:10:16.852Z,18.77
2018-03-08T12:12:45.058Z,20.40
2018-03-08T12:15:13.792Z,17.80
2018-03-08T12:17:42.997Z,17.80
2018-03-08T12:20:11.541Z,17.40
2018-03-08T12:22:40.494Z,17.07
2018-03-08T12:25:08.821Z,16.93
2018-03-08T12:27:37.748Z,16.93
2018-03-08T12:30:05.861Z,16.47
2018-03-08T12:32:35.307Z,15.00
2018-03-08T12:35:05.303Z,14.43
2018-03-08T12:37:33.483Z,16.07
2018-03-08T12:40:03.023Z,14.87
2018-03-08T12:42:31.224Z,15.53
2018-03-08T12:44:59.384Z,16.10
2018-03-08T12:47:28.660Z,15.53
2018-03-08T12:50:14.147Z,13.63
2018-03-08T12:52:42.684Z,14.13
2018-03-08T12:55:11.749Z,15.30
2018-03-08T12:57:42.678Z,13.20
2018-03-08T13:02:46.645Z,11.70
2018-03-08T13:05:15.263Z,11.30
2018-03-08T13:07:43.492Z,11.50
2018-03-08T13:10:11.681Z,11.70
2018-03-08T13:12:39.996Z,12.07
2018-03-08T13:15:08.722Z,11.50
2018-03-08T13:17:41.569Z,11.47
2018-03-08T13:22:58.711Z,10.30
2018-03-08T13:25:28.668Z,9.60
2018-03-08T13:30:48.228Z,8.90
2018-03-08T13:33:18.244Z,8.40
2018-03-08T13:35:48.190Z,7.50
2018-03-08T13:38:16.996Z,8.97
2018-03-08T13:40:46.407Z,8.30
2018-03-08T13:43:16.864Z,7.80
2018-03-08T13:45:45.661Z,8.47
2018-03-08T13:54:36.386Z,7.40
2018-03-08T13:57:04.513Z,7.37
2018-03-08T13:59:33.590Z,7.07
2018-03-08T14:02:13.291Z,7.13
2018-03-08T14:04:42.584Z,8.83
2018-03-08T14:07:10.955Z,7.83
2018-03-08T14:09:45.046Z,8.23
2018-03-08T14:12:13.301Z,7.53
2018-03-08T14:14:43.883Z,7.80
2018-03-08T14:19:46.356Z,7.77
2018-03-08T14:22:14.653Z,7.53
2018-03-08T14:24:43.791Z,6.70
2018-03-08T14:27:12.295Z,7.60
2018-03-08T14:29:40.920Z,7.33
2018-03-08T14:32:14.705Z,7.23
2018-03-08T14:34:42.904Z,7.00
2018-03-08T14:42:36.685Z,7.27
2018-03-08T14:45:04.920Z,8.23
2018-03-08T14:47:34.758Z,6.97
2018-03-08T14:50:14.127Z,6.43
2018-03-08T14:55:44.127Z,5.30
2018-03-08T14:58:13.189Z,6.30
2018-03-08T15:00:41.377Z,4.80
2018-03-08T15:03:09.516Z,5.07
2018-03-08T15:05:38.019Z,4.70
2018-03-08T15:08:06.517Z,4.97
2018-03-08T15:10:34.757Z,5.60
2018-03-08T15:13:11.442Z,4.70
2018-03-08T15:15:40.516Z,4.43
2018-03-08T15:18:20.038Z,4.73
2018-03-08T15:23:48.071Z,5.20
2018-03-08T15:26:16.970Z,4.47
2018-03-08T15:28:45.184Z,4.93
2018-03-08T15:31:25.495Z,4.20
2018-03-08T15:33:54.213Z,4.40
2018-03-08T15:36:22.521Z,3.87
2018-03-08T15:39:12.467Z,3.90
2018-03-08T15:41:40.626Z,4.20
2018-03-08T15:44:13.928Z,4.40
2018-03-08T15:46:42.026Z,4.97
2018-03-08T15:54:58.032Z,4.20
2018-03-08T16:02:37.811Z,4.57
2018-03-08T16:05:06.988Z,4.03
2018-03-08T16:10:43.807Z,4.50
2018-03-08T16:13:12.667Z,4.00
2018-03-08T16:15:40.821Z,3.80
2018-03-08T16:18:09.261Z,3.67
2018-03-08T16:20:37.444Z,4.63
2018-03-08T16:23:05.615Z,4.23
2018-03-08T16:25:40.158Z,3.80
2018-03-08T16:28:08.379Z,4.07
2018-03-08T16:30:40.310Z,3.83
2018-03-08T16:33:10.470Z,3.20
2018-03-08T16:35:38.618Z,2.90
2018-03-08T16:38:07.515Z,3.50
2018-03-08T16:40:35.705Z,3.10
2018-03-08T16:43:03.831Z,3.80
2018-03-08T16:45:32.990Z,3.93
2018-03-08T16:48:02.896Z,3.60
2018-03-08T16:50:31.933Z,3.57
2018-03-08T16:53:00.012Z,3.43
2018-03-08T16:55:28.537Z,3.87
2018-03-08T16:57:56.639Z,3.10
2018-03-08T17:00:26.728Z,4.47
2018-03-08T17:02:55.489Z,4.53
2018-03-08T17:05:24.008Z,4.17
2018-03-08T17:07:52.196Z,4.50
2018-03-08T17:10:33.141Z,4.20
2018-03-08T17:13:08.340Z,4.30
2018-03-08T17:15:36.509Z,4.33
2018-03-08T17:18:07.693Z,4.57
2018-03-08T17:20:36.009Z,4.50
2018-03-08T17:23:04.273Z,4.67
2018-03-08T17:25:33.355Z,5.07
2018-03-08T17:28:01.652Z,4.47
2018-03-08T17:30:29.925Z,4.03
2018-03-08T17:32:58.088Z,4.70
2018-03-08T17:35:26.288Z,4.00
2018-03-08T17:37:54.427Z,4.40
2018-03-08T17:40:22.983Z,4.40
2018-03-08T17:42:51.184Z,4.10
2018-03-08T17:45:19.792Z,4.10
2018-03-08T17:47:47.893Z,4.00
2018-03-08T17:50:16.006Z,3.67
2018-03-08T17:52:44.103Z,4.60
2018-03-08T17:55:14.050Z,4.73
2018-03-08T17:57:42.269Z,4.20
2018-03-08T18:00:13.532Z,4.17
2018-03-08T18:02:41.640Z,4.93
2018-03-08T18:05:09.813Z,4.50
2018-03-08T18:07:38.784Z,5.00
2018-03-08T18:10:06.887Z,5.50
2018-03-08T18:12:35.011Z,5.10
2018-03-08T18:15:03.287Z,4.87
2018-03-08T18:17:32.758Z,4.80
2018-03-08T18:20:00.870Z,4.90
2018-03-08T18:22:29.040Z,5.90
2018-03-08T18:24:57.135Z,5.43
2018-03-08T18:27:25.329Z,6.00
2018-03-08T18:29:54.903Z,6.10
2018-03-08T18:32:23.049Z,5.97
2018-03-08T18:34:52.385Z,6.63
2018-03-08T18:37:20.611Z,6.27
2018-03-08T18:39:48.729Z,6.23
2018-03-08T18:42:17.588Z,6.10
2018-03-08T18:44:45.923Z,6.33
2018-03-08T18:47:14.042Z,6.10
2018-03-08T18:49:44.052Z,6.80
2018-03-08T18:52:13.150Z,5.80
2018-03-08T18:54:41.483Z,6.80
2018-03-08T18:57:10.763Z,5.90
2018-03-08T18:59:39.725Z,6.17
2018-03-08T19:02:08.323Z,6.70
2018-03-08T19:04:36.467Z,6.67
2018-03-08T19:07:04.654Z,7.27
2018-03-08T19:09:33.567Z,5.90
2018-03-08T19:12:01.755Z,6.53
2018-03-08T19:14:30.780Z,7.23
2018-03-08T19:16:58.893Z,6.80
2018-03-08T19:19:27.039Z,7.80
2018-03-08T19:21:55.168Z,7.90
2018-03-08T19:24:24.120Z,7.27
2018-03-08T19:26:56.804Z,7.80
2018-03-08T19:29:24.880Z,9.63
2018-03-08T19:31:52.992Z,9.20
2018-03-08T19:34:21.127Z,7.03
2018-03-08T19:36:49.250Z,7.90
2018-03-08T19:39:17.345Z,7.40
2018-03-08T19:41:47.361Z,6.73
2018-03-08T19:44:15.584Z,7.53
2018-03-08T19:46:44.201Z,6.20
2018-03-08T19:49:13.054Z,6.90
2018-03-08T19:51:41.189Z,5.87
2018-03-08T19:54:09.442Z,5.93
2018-03-08T19:56:37.672Z,5.60
2018-03-08T19:59:05.835Z,5.47
2018-03-08T20:01:33.933Z,4.60
2018-03-08T20:04:10.275Z,3.70
2018-03-08T20:06:38.423Z,3.57
2018-03-08T20:09:12.554Z,3.40
2018-03-08T20:11:40.878Z,2.90
2018-03-08T20:14:08.971Z,3.30
2018-03-08T20:16:37.149Z,2.93
2018-03-08T20:19:05.311Z,3.00
2018-03-08T20:21:34.344Z,3.40
2018-03-08T20:24:03.561Z,2.50
2018-03-08T20:26:32.482Z,3.10
2018-03-08T20:29:01.490Z,2.40
2018-03-08T20:31:30.387Z,1.97
2018-03-08T20:34:02.829Z,2.03
2018-03-08T20:36:31.303Z,2.20
2018-03-08T20:38:59.426Z,1.77
2018-03-08T20:41:27.558Z,2.23
2018-03-08T20:43:55.716Z,1.80
2018-03-08T20:46:24.661Z,2.00
2018-03-08T20:48:52.762Z,1.80
2018-03-08T20:51:20.875Z,2.13
2018-03-08T20:53:49.075Z,2.20
2018-03-08T20:56:17.968Z,2.17
2018-03-08T20:58:46.085Z,2.50
2018-03-08T21:01:14.208Z,2.20
2018-03-08T21:03:42.399Z,2.20
2018-03-08T21:06:10.597Z,2.20
2018-03-08T21:08:38.804Z,2.67
2018-03-08T21:11:07.069Z,2.40
2018-03-08T21:13:35.170Z,2.33
2018-03-08T21:16:03.382Z,2.57
2018-03-08T21:18:43.795Z,2.20
2018-03-08T21:21:12.098Z,2.00
2018-03-08T21:23:40.323Z,1.90
2018-03-08T21:26:08.796Z,1.87
2018-03-08T21:28:37.734Z,2.40
2018-03-08T21:31:05.985Z,2.33
2018-03-08T21:33:34.144Z,2.20
2018-03-08T21:36:02.206Z,2.30
2018-03-08T21:38:30.304Z,2.40
2018-03-08T21:40:58.512Z,2.33
2018-03-08T21:43:26.684Z,2.73
2018-03-08T21:45:56.354Z,2.90
2018-03-08T21:48:24.448Z,2.90
2018-03-08T21:50:52.635Z,3.17
2018-03-08T21:53:20.820Z,3.23
2018-03-08T21:55:49.000Z,2.87
2018-03-08T21:58:19.450Z,4.00
2018-03-08T22:00:47.642Z,3.70
2018-03-08T22:03:15.788Z,3.73
2018-03-08T22:05:44.686Z,4.17
2018-03-08T22:08:12.810Z,3.90
2018-03-08T22:10:40.997Z,3.80
2018-03-08T22:13:10.089Z,4.47
2018-03-08T22:15:38.177Z,3.93
2018-03-08T22:18:06.317Z,4.17
2018-03-08T22:20:34.400Z,4.40
2018-03-08T22:23:02.548Z,4.47
2018-03-08T22:25:31.899Z,5.20
2018-03-08T22:27:59.959Z,5.10
2018-03-08T22:30:40.135Z,5.20
2018-03-08T22:33:08.222Z,4.47
2018-03-08T22:35:36.340Z,4.50
2018-03-08T22:38:05.271Z,5.00
2018-03-08T22:43:06.911Z,5.33
2018-03-08T22:45:35.038Z,4.10
2018-03-08T22:48:03.118Z,5.60
2018-03-08T22:50:32.036Z,6.13
2018-03-08T22:53:00.159Z,5.70
2018-03-08T22:55:28.341Z,6.07
2018-03-08T22:57:56.465Z,6.70
2018-03-08T23:00:25.333Z,6.10
2018-03-08T23:03:01.103Z,7.53
2018-03-08T23:05:29.241Z,6.90
2018-03-08T23:07:57.364Z,7.90
2018-03-08T23:10:25.474Z,8.23
2018-03-08T23:12:53.566Z,8.30
2018-03-08T23:15:22.487Z,8.33
2018-03-08T23:17:50.624Z,9.83
2018-03-08T23:20:18.803Z,9.30
2018-03-08T23:22:47.530Z,10.50
2018-03-08T23:25:15.660Z,8.97
2018-03-08T23:27:43.817Z,10.10
2018-03-08T23:30:11.909Z,10.47
2018-03-08T23:32:50.362Z,9.97
2018-03-08T23:35:19.012Z,10.80
2018-03-08T23:38:06.220Z,9.40
2018-03-08T23:43:08.490Z,11.27
2018-03-08T23:45:36.701Z,11.20
2018-03-08T23:48:08.389Z,11.20
2018-03-08T23:50:36.563Z,10.67
2018-03-08T23:53:04.651Z,10.93
2018-03-08T23:55:32.764Z,11.40
2018-03-08T23:58:00.949Z,10.27
